ASN logo
ASN Wikibase Occurrence # 202594
Last updated: 11 December 2017
This information is added by users of ASN. Neither ASN nor the Flight Safety Foundation are responsible for the completeness or correctness of this information. If you feel this information is incomplete or incorrect, you can submit corrected information.

Date:06-DEC-2017
Time:12:14 UTC
Type:Silhouette image of generic B735 model; specific model in this crash may look slightly different
Boeing 737-53S
Owner/operator:Air Baltic
Registration: YL-BBE
C/n / msn: 29073/3083
Fatalities:Fatalities: 0 / Occupants: 52
Other fatalities:0
Airplane damage: None
Location:Moskva-Sheremetyevo Airport (SVO/UUEE) -   Russia
Phase: Taxi
Nature:International Scheduled Passenger
Departure airport:Riga International Airport (RIX/EVRA)
Destination airport:Moskva-Sheremetyevo Airport (SVO/UUEE)
Narrative:
airBaltic confirms that today, on December 6, 2017, due to heavy winds and slippery taxiway its flight BT428 with Boeing 737-500 from Riga to Moscow, slid off the taxiway during taxiing after the landing in Moscow Sheremetyevo International Airport.

Weather reported about the time of the inciden (12:14Z):
UUEE 061330Z 11005MPS 1800 R06R/1800N SHSN SCT012CB M03/M03 Q1000 R06R/590320 NOSIG
UUEE 061300Z 13005MPS 1800 R06R/1900D SHSN SCT013CB M03/M03 Q1000 R06R/590320 NOSIG
UUEE 061230Z 12004MPS 1000 R06R/1200U SHSN SCT007CB M03/M04 Q1000 R06R/590230 NOSIG
UUEE 061200Z 13005MPS 1500 1400NE R06L/1500U R06R/1500U SN SCT010 M03/M04 Q1001 R06L/520236 R06R/550245 NOSIG

Sources:

https://twitter.com/airBaltic/status/938405079199158273
https://www.flightradar24.com/data/flights/bt428#fbfc77f

Проскользили мимо рулежной дорожки. Ждем буксир. #шереметьево

A post shared by Сергей Самойлов (@03_sergey) on


Revision history:

Date/timeContributorUpdates
06-Dec-2017 14:53 xtrees Added
06-Dec-2017 14:56 harro Updated [Aircraft type, Registration, Cn, Location, Phase, Nature, Departure airport, Destination airport, Source, Embed code]
06-Dec-2017 14:59 harro Updated [Time, Narrative]

Corrections or additions? ... Edit this accident description